createdAt,value
2023-04-08T00:00:55.991Z,7.30
2023-04-08T00:03:22.684Z,7.30
2023-04-08T00:05:49.352Z,7.30
2023-04-08T00:08:15.948Z,7.70
2023-04-08T00:10:42.534Z,7.30
2023-04-08T00:13:09.132Z,7.30
2023-04-08T00:15:36.878Z,7.40
2023-04-08T00:18:03.648Z,7.30
2023-04-08T00:20:30.285Z,7.10
2023-04-08T00:22:56.838Z,7.30
2023-04-08T00:25:25.379Z,7.30
2023-04-08T00:27:52.429Z,7.30
2023-04-08T00:30:19.340Z,7.20
2023-04-08T00:32:46.061Z,7.20
2023-04-08T00:35:12.889Z,7.20
2023-04-08T00:37:39.448Z,7.20
2023-04-08T00:40:06.671Z,7.20
2023-04-08T00:42:33.308Z,7.30
2023-04-08T00:44:59.825Z,7.20
2023-04-08T00:47:26.548Z,7.20
2023-04-08T00:49:53.187Z,7.20
2023-04-08T00:52:19.797Z,7.20
2023-04-08T00:54:46.494Z,7.30
2023-04-08T00:57:13.129Z,7.30
2023-04-08T00:59:40.477Z,7.30
2023-04-08T01:02:31.998Z,7.30
2023-04-08T01:05:03.821Z,7.30
2023-04-08T01:07:35.119Z,7.40
2023-04-08T01:10:29.982Z,7.30
2023-04-08T01:12:58.856Z,7.40
2023-04-08T01:15:27.653Z,7.30
2023-04-08T01:17:56.530Z,7.30
2023-04-08T01:20:25.568Z,7.40
2023-04-08T01:23:03.721Z,7.40
2023-04-08T01:25:35.529Z,7.30
2023-04-08T01:28:07.211Z,7.40
2023-04-08T01:30:35.691Z,7.30
2023-04-08T01:33:03.793Z,7.30
2023-04-08T01:35:31.519Z,7.30
2023-04-08T01:37:59.888Z,7.20
2023-04-08T01:40:26.797Z,7.20
2023-04-08T01:42:57.572Z,7.10
2023-04-08T01:45:24.849Z,7.20
2023-04-08T01:47:53.007Z,7.20
2023-04-08T01:50:20.646Z,7.30
2023-04-08T01:52:50.384Z,7.20
2023-04-08T01:55:17.333Z,7.10
2023-04-08T01:57:48.716Z,7.10
2023-04-08T02:00:25.752Z,7.10
2023-04-08T02:02:53.382Z,7.00
2023-04-08T02:05:20.591Z,7.10
2023-04-08T02:07:50.495Z,7.00
2023-04-08T02:10:17.138Z,7.00
2023-04-08T02:12:45.255Z,7.00
2023-04-08T02:15:13.819Z,6.90
2023-04-08T02:17:52.470Z,6.90
2023-04-08T02:20:34.606Z,6.90
2023-04-08T02:23:04.547Z,6.70
2023-04-08T02:25:34.609Z,6.70
2023-04-08T02:28:04.347Z,6.60
2023-04-08T02:30:32.555Z,6.50
2023-04-08T02:33:03.315Z,6.40
2023-04-08T02:35:30.455Z,6.30
2023-04-08T02:37:57.039Z,6.40
2023-04-08T02:40:28.582Z,6.30
2023-04-08T02:42:56.318Z,6.30
2023-04-08T02:45:26.616Z,6.20
2023-04-08T02:47:53.250Z,6.20
2023-04-08T02:50:19.851Z,6.20
2023-04-08T02:52:46.416Z,6.20
2023-04-08T02:55:12.963Z,6.20
2023-04-08T02:57:41.000Z,6.10
2023-04-08T03:00:08.407Z,6.10
2023-04-08T03:02:35.339Z,6.10
2023-04-08T03:05:02.333Z,6.20
2023-04-08T03:07:28.869Z,6.20
2023-04-08T03:09:55.596Z,6.10
2023-04-08T03:12:22.699Z,6.20
2023-04-08T03:14:52.186Z,6.10
2023-04-08T03:17:18.755Z,6.10
2023-04-08T03:19:45.271Z,6.10
2023-04-08T03:22:13.106Z,6.10
2023-04-08T03:24:39.965Z,6.10
2023-04-08T03:27:07.975Z,6.10
2023-04-08T03:29:34.564Z,6.20
2023-04-08T03:32:01.284Z,6.20
2023-04-08T03:34:27.853Z,6.30
2023-04-08T03:36:54.410Z,6.30
2023-04-08T03:39:21.052Z,6.30
2023-04-08T03:41:47.605Z,6.30
2023-04-08T03:44:14.151Z,6.30
2023-04-08T03:46:40.760Z,6.20
2023-04-08T03:49:07.398Z,6.20
2023-04-08T03:51:33.985Z,6.20
2023-04-08T03:54:00.520Z,6.20
2023-04-08T03:56:27.143Z,6.30
2023-04-08T03:58:53.692Z,6.30
2023-04-08T04:01:20.261Z,6.40
2023-04-08T04:03:46.958Z,6.40
2023-04-08T04:06:13.570Z,6.40
2023-04-08T04:08:40.117Z,6.40
2023-04-08T04:11:06.625Z,6.40
2023-04-08T04:13:33.176Z,6.40
2023-04-08T04:15:59.717Z,6.40
2023-04-08T04:18:26.362Z,6.40
2023-04-08T04:20:52.938Z,6.50
2023-04-08T04:23:19.616Z,6.40
2023-04-08T04:25:46.229Z,6.40
2023-04-08T04:28:12.848Z,6.40
2023-04-08T04:30:40.186Z,6.30
2023-04-08T04:33:07.557Z,6.30
2023-04-08T04:35:34.291Z,6.20
2023-04-08T04:38:01.539Z,6.20
2023-04-08T04:40:28.141Z,6.20
2023-04-08T04:42:54.730Z,6.10
2023-04-08T04:45:21.271Z,6.10
2023-04-08T04:47:47.798Z,6.00
2023-04-08T04:50:14.383Z,6.00
2023-04-08T04:52:41.373Z,6.00
2023-04-08T04:55:08.386Z,6.00
2023-04-08T04:57:34.926Z,6.00
2023-04-08T05:00:03.900Z,6.00
2023-04-08T05:02:32.116Z,6.00
2023-04-08T05:04:58.826Z,5.90
2023-04-08T05:07:25.635Z,5.90
2023-04-08T05:09:52.172Z,5.80
2023-04-08T05:12:20.593Z,5.70
2023-04-08T05:14:47.202Z,5.80
2023-04-08T05:17:13.865Z,5.70
2023-04-08T05:19:40.502Z,5.70
2023-04-08T05:24:34.053Z,5.50
2023-04-08T05:27:01.149Z,5.50
2023-04-08T05:29:28.748Z,5.40
2023-04-08T05:31:56.487Z,5.30
2023-04-08T05:36:52.283Z,5.40
2023-04-08T05:39:19.732Z,5.40
2023-04-08T05:41:46.672Z,5.60
2023-04-08T05:44:16.419Z,5.70
2023-04-08T05:46:42.992Z,6.00
2023-04-08T05:49:09.657Z,6.20
2023-04-08T05:51:37.185Z,6.00
2023-04-08T05:54:03.774Z,6.10
2023-04-08T05:56:32.146Z,6.20
2023-04-08T05:58:58.783Z,6.30
2023-04-08T06:01:26.263Z,6.30
2023-04-08T06:03:53.193Z,6.50
2023-04-08T06:06:19.863Z,6.50
2023-04-08T06:08:47.147Z,7.20
2023-04-08T06:31:10.769Z,7.30
2023-04-08T06:33:37.287Z,7.40
2023-04-08T06:36:05.025Z,7.30
2023-04-08T06:38:32.263Z,7.40
2023-04-08T06:41:03.482Z,7.40
2023-04-08T06:48:30.550Z,7.60
2023-04-08T07:49:50.130Z,9.90
2023-04-08T07:52:16.721Z,9.80
2023-04-08T07:54:43.255Z,9.70
2023-04-08T07:57:09.796Z,9.80
2023-04-08T18:11:54.666Z,8.70
2023-04-08T18:14:21.259Z,8.90
2023-04-08T18:16:47.853Z,8.70
2023-04-08T18:19:14.407Z,8.70
2023-04-08T18:21:41.036Z,8.60
2023-04-08T18:24:09.195Z,8.50
2023-04-08T18:26:36.345Z,8.50
2023-04-08T18:29:02.864Z,8.60
2023-04-08T18:31:29.533Z,8.60
2023-04-08T18:33:56.158Z,8.50
2023-04-08T18:36:22.814Z,8.60
2023-04-08T21:37:14.463Z,7.00
2023-04-08T21:39:41.110Z,7.00
2023-04-08T21:42:07.681Z,6.90
2023-04-08T21:44:34.439Z,6.70
2023-04-08T21:47:02.095Z,6.60
2023-04-08T21:49:29.707Z,6.50
2023-04-08T21:51:56.327Z,6.30
2023-04-08T21:54:23.057Z,6.30
2023-04-08T21:56:49.708Z,6.20
2023-04-08T21:59:16.298Z,6.30
2023-04-08T22:01:46.301Z,6.20
2023-04-08T22:04:13.004Z,6.10
2023-04-08T22:06:39.661Z,6.10
2023-04-08T22:09:07.005Z,6.00
2023-04-08T22:11:33.655Z,5.90
2023-04-08T22:14:00.242Z,6.00
2023-04-08T22:16:27.010Z,6.10
2023-04-08T22:18:53.872Z,6.10
2023-04-08T22:21:20.913Z,6.10
2023-04-08T22:23:47.455Z,6.00
2023-04-08T22:26:15.643Z,5.90
2023-04-08T22:28:42.568Z,5.80
2023-04-08T22:31:13.750Z,5.70
2023-04-08T22:33:41.660Z,5.80
2023-04-08T22:36:08.214Z,5.80
2023-04-08T22:38:35.020Z,5.70
2023-04-08T22:41:01.760Z,5.70
2023-04-08T22:43:28.350Z,5.60
2023-04-08T22:45:55.389Z,5.60
2023-04-08T22:48:22.016Z,5.50
2023-04-08T22:50:48.830Z,5.50
2023-04-08T22:53:15.695Z,5.40
2023-04-08T22:55:42.251Z,5.30
2023-04-08T22:58:08.758Z,5.20
2023-04-08T23:00:35.326Z,5.10
2023-04-08T23:03:04.525Z,5.00
2023-04-08T23:05:31.450Z,4.90
2023-04-08T23:07:58.138Z,4.80
2023-04-08T23:10:24.756Z,4.80
2023-04-08T23:12:51.364Z,4.80
2023-04-08T23:15:18.010Z,4.80
2023-04-08T23:17:44.495Z,4.70
2023-04-08T23:20:11.632Z,4.70
2023-04-08T23:22:38.144Z,4.70
2023-04-08T23:25:05.090Z,4.70
2023-04-08T23:27:31.755Z,4.70
2023-04-08T23:29:58.289Z,4.70
2023-04-08T23:32:24.870Z,4.80
2023-04-08T23:34:51.427Z,4.80
2023-04-08T23:37:17.966Z,4.80
2023-04-08T23:39:44.520Z,4.80
2023-04-08T23:42:11.066Z,5.00
2023-04-08T23:44:37.609Z,5.00
2023-04-08T23:47:04.172Z,5.10
2023-04-08T23:49:30.823Z,5.10
2023-04-08T23:51:57.358Z,5.20
2023-04-08T23:54:24.074Z,5.20
2023-04-08T23:56:50.612Z,5.20
2023-04-08T23:59:17.145Z,5.20
